createdAt,value
2023-01-26T00:00:52.987Z,1.38
2023-01-26T00:03:19.690Z,1.39
2023-01-26T00:05:46.285Z,1.37
2023-01-26T00:08:13.342Z,1.36
2023-01-26T00:10:41.476Z,1.40
2023-01-26T00:13:10.505Z,1.35
2023-01-26T00:15:36.991Z,1.34
2023-01-26T00:18:03.817Z,1.32
2023-01-26T00:20:30.564Z,1.34
2023-01-26T00:22:56.934Z,1.33
2023-01-26T00:25:23.379Z,1.33
2023-01-26T00:27:49.817Z,1.33
2023-01-26T00:30:16.591Z,1.36
2023-01-26T00:32:43.120Z,1.40
2023-01-26T00:35:09.721Z,1.38
2023-01-26T00:37:36.501Z,1.39
2023-01-26T00:40:02.988Z,1.39
2023-01-26T00:42:29.434Z,1.39
2023-01-26T00:44:56.718Z,1.33
2023-01-26T00:47:23.163Z,1.33
2023-01-26T00:49:49.812Z,1.30
2023-01-26T00:52:16.382Z,1.24
2023-01-26T00:54:42.808Z,1.27
2023-01-26T00:57:10.146Z,1.27
2023-01-26T00:59:36.564Z,1.27
2023-01-26T01:02:03.250Z,1.28
2023-01-26T01:04:30.613Z,1.31
2023-01-26T01:07:00.032Z,1.32
2023-01-26T01:09:26.560Z,1.32
2023-01-26T01:11:52.962Z,1.27
2023-01-26T01:14:19.389Z,1.32
2023-01-26T01:16:46.581Z,1.30
2023-01-26T01:19:15.616Z,1.22
2023-01-26T01:21:43.163Z,1.28
2023-01-26T01:24:10.901Z,1.33
2023-01-26T01:26:37.387Z,1.32
2023-01-26T01:29:03.987Z,1.32
2023-01-26T01:31:30.650Z,1.34
2023-01-26T01:33:57.882Z,1.40
2023-01-26T01:36:25.242Z,1.41
2023-01-26T01:38:52.145Z,1.40
2023-01-26T01:41:20.766Z,1.42
2023-01-26T01:43:47.158Z,1.45
2023-01-26T01:46:25.886Z,1.47
2023-01-26T01:49:07.503Z,1.42
2023-01-26T01:51:43.672Z,1.37
2023-01-26T01:54:15.557Z,1.35
2023-01-26T01:56:47.427Z,1.33
2023-01-26T01:59:14.522Z,1.35
2023-01-26T02:01:41.911Z,1.36
2023-01-26T02:04:09.359Z,1.35
2023-01-26T02:06:48.435Z,1.38
2023-01-26T02:09:45.525Z,1.38
2023-01-26T02:12:14.568Z,1.40
2023-01-26T02:14:41.770Z,1.41
2023-01-26T02:17:09.758Z,1.40
2023-01-26T02:19:58.553Z,1.35
2023-01-26T02:22:56.029Z,1.36
2023-01-26T02:25:28.344Z,1.39
2023-01-26T02:27:54.773Z,1.39
2023-01-26T02:30:23.860Z,1.38
2023-01-26T02:32:50.525Z,1.36
2023-01-26T02:35:17.759Z,1.36
2023-01-26T02:37:44.608Z,1.36
2023-01-26T02:40:24.973Z,1.34
2023-01-26T02:42:55.031Z,1.36
2023-01-26T02:45:23.656Z,1.38
2023-01-26T02:47:50.140Z,1.39
2023-01-26T02:50:16.914Z,1.42
2023-01-26T02:52:44.334Z,1.42
2023-01-26T02:55:24.890Z,1.43
2023-01-26T02:57:56.265Z,1.45
2023-01-26T03:00:26.791Z,1.54
2023-01-26T03:02:56.765Z,1.57
2023-01-26T03:05:24.527Z,1.59
2023-01-26T03:07:51.940Z,1.60
2023-01-26T03:10:20.473Z,1.61
2023-01-26T03:12:46.935Z,1.65
2023-01-26T03:15:32.121Z,1.63
2023-01-26T03:18:22.902Z,1.61
2023-01-26T03:21:08.655Z,1.62
2023-01-26T03:23:53.709Z,1.61
2023-01-26T03:26:40.586Z,1.61
2023-01-26T03:29:07.237Z,1.59
2023-01-26T03:31:33.900Z,1.56
2023-01-26T03:34:00.664Z,1.55
2023-01-26T03:36:28.205Z,1.58
2023-01-26T03:38:54.684Z,1.62
2023-01-26T03:41:40.886Z,1.65
2023-01-26T03:44:26.036Z,1.66
2023-01-26T03:47:13.417Z,1.69
2023-01-26T03:49:59.832Z,1.70
2023-01-26T03:52:45.123Z,1.70
2023-01-26T03:55:30.453Z,1.70
2023-01-26T03:57:56.922Z,1.75
2023-01-26T04:00:23.365Z,1.79
2023-01-26T04:03:09.762Z,1.73
2023-01-26T04:05:55.163Z,1.68
2023-01-26T04:08:41.613Z,1.70
2023-01-26T04:11:09.097Z,1.71
2023-01-26T04:13:54.342Z,1.76
2023-01-26T04:16:49.763Z,1.81
2023-01-26T04:19:35.326Z,1.87
2023-01-26T04:22:02.973Z,1.90
2023-01-26T04:24:31.315Z,1.93
2023-01-26T04:26:58.841Z,1.94
2023-01-26T04:29:30.202Z,1.94
2023-01-26T04:31:56.809Z,1.96
2023-01-26T04:34:23.317Z,1.99
2023-01-26T04:36:50.110Z,2.02
2023-01-26T04:39:18.161Z,2.02
2023-01-26T04:41:48.016Z,2.03
2023-01-26T04:44:16.821Z,2.03
2023-01-26T04:46:43.467Z,2.04
2023-01-26T04:49:12.911Z,2.08
2023-01-26T04:51:39.651Z,2.07
2023-01-26T04:54:06.321Z,2.09
2023-01-26T04:56:36.462Z,2.08
2023-01-26T04:59:05.527Z,2.06
2023-01-26T05:01:33.845Z,2.05
2023-01-26T05:04:03.926Z,2.09
2023-01-26T05:06:33.338Z,2.11
2023-01-26T05:08:59.799Z,2.14
2023-01-26T05:11:27.168Z,2.16
2023-01-26T05:14:16.870Z,2.15
2023-01-26T05:16:55.564Z,2.19
2023-01-26T05:19:45.322Z,2.21
2023-01-26T05:22:30.003Z,2.24
2023-01-26T05:25:14.873Z,2.25
2023-01-26T05:27:52.743Z,2.25
2023-01-26T05:30:19.568Z,2.27
2023-01-26T05:32:46.316Z,2.28
2023-01-26T05:35:14.696Z,2.31
2023-01-26T05:37:45.511Z,2.32
2023-01-26T05:40:13.811Z,2.34
2023-01-26T05:42:42.666Z,2.35
2023-01-26T05:45:35.500Z,2.36
2023-01-26T05:48:02.199Z,2.37
2023-01-26T05:50:30.783Z,2.40
2023-01-26T05:53:15.984Z,2.42
2023-01-26T05:55:43.490Z,2.42
2023-01-26T05:58:10.626Z,2.44
2023-01-26T06:00:38.128Z,2.53
2023-01-26T06:03:09.917Z,2.56
2023-01-26T06:05:38.763Z,2.59
2023-01-26T06:08:13.149Z,2.70
2023-01-26T06:11:04.464Z,2.84
2023-01-26T06:13:49.353Z,2.95
2023-01-26T06:16:23.192Z,3.05
2023-01-26T06:18:50.370Z,3.14
2023-01-26T06:21:17.717Z,3.17
2023-01-26T06:23:44.248Z,3.22
2023-01-26T06:26:11.844Z,3.26
2023-01-26T06:28:38.970Z,3.32
2023-01-26T06:31:08.173Z,3.37
2023-01-26T06:33:36.865Z,3.50
2023-01-26T06:36:09.974Z,3.51
2023-01-26T06:38:37.127Z,3.52
2023-01-26T06:41:05.922Z,3.54
2023-01-26T06:43:34.221Z,3.58
2023-01-26T06:46:01.449Z,3.57
2023-01-26T06:48:30.895Z,3.62
2023-01-26T06:51:04.645Z,3.66
2023-01-26T06:53:39.967Z,3.67
2023-01-26T06:56:16.859Z,3.69
2023-01-26T06:59:10.708Z,3.66
2023-01-26T07:01:49.889Z,3.72
2023-01-26T07:04:17.004Z,3.72
2023-01-26T07:06:43.737Z,3.76
2023-01-26T07:09:10.694Z,3.74
2023-01-26T07:11:37.380Z,3.80
2023-01-26T07:14:03.851Z,3.81
2023-01-26T07:16:32.617Z,3.82
2023-01-26T07:19:00.120Z,3.82
2023-01-26T07:21:26.636Z,3.83
2023-01-26T07:23:54.095Z,3.83
2023-01-26T07:26:21.092Z,3.80
2023-01-26T07:28:47.891Z,3.80
2023-01-26T07:31:14.455Z,3.85
2023-01-26T07:33:40.958Z,3.88
2023-01-26T07:36:07.801Z,3.88
2023-01-26T07:38:34.635Z,3.89
2023-01-26T07:41:06.097Z,3.89
2023-01-26T07:43:34.212Z,3.90
2023-01-26T07:46:00.671Z,3.91
2023-01-26T07:48:29.680Z,3.92
2023-01-26T07:50:59.855Z,3.90
2023-01-26T07:53:29.017Z,3.87
2023-01-26T07:56:05.751Z,3.88
2023-01-26T07:58:32.274Z,3.89
2023-01-26T08:01:10.875Z,3.91
2023-01-26T08:03:37.706Z,3.91
2023-01-26T08:06:04.844Z,3.93
2023-01-26T08:08:31.360Z,3.95
2023-01-26T08:10:58.745Z,3.95
2023-01-26T08:13:34.714Z,3.95
2023-01-26T08:16:06.392Z,3.93
2023-01-26T08:18:32.829Z,3.97
2023-01-26T08:21:00.322Z,3.97
2023-01-26T08:23:27.190Z,4.01
2023-01-26T08:25:53.707Z,4.03
2023-01-26T08:28:21.269Z,4.03
2023-01-26T08:30:47.856Z,4.03
2023-01-26T08:33:14.312Z,4.05
2023-01-26T08:35:40.779Z,4.02
2023-01-26T08:38:07.228Z,4.04
2023-01-26T08:40:33.603Z,4.08
2023-01-26T08:43:02.266Z,4.06
2023-01-26T08:45:32.024Z,4.13
2023-01-26T08:47:58.527Z,4.22
2023-01-26T08:50:25.679Z,4.24
2023-01-26T08:52:52.290Z,4.33
2023-01-26T08:55:18.674Z,4.39
2023-01-26T08:57:47.008Z,4.42
2023-01-26T09:00:14.333Z,4.49
2023-01-26T09:02:40.997Z,4.43
2023-01-26T09:05:08.187Z,4.44
2023-01-26T09:07:34.593Z,4.47
2023-01-26T09:10:00.939Z,4.51
2023-01-26T09:12:27.406Z,4.49
2023-01-26T09:14:53.832Z,4.49
2023-01-26T09:17:20.257Z,4.56
2023-01-26T09:19:46.800Z,4.57
2023-01-26T09:22:13.313Z,4.65
2023-01-26T09:24:39.700Z,4.75
2023-01-26T09:27:06.137Z,4.84
2023-01-26T09:29:32.572Z,4.90
2023-01-26T09:31:59.050Z,5.04
2023-01-26T09:34:25.536Z,5.14
2023-01-26T09:36:51.914Z,5.25
2023-01-26T09:39:18.453Z,5.34
2023-01-26T09:42:14.458Z,5.41
2023-01-26T09:44:51.565Z,5.44
2023-01-26T09:47:31.971Z,5.51
2023-01-26T09:50:10.951Z,5.50
2023-01-26T09:52:48.204Z,5.54
2023-01-26T09:55:19.483Z,5.58
2023-01-26T09:58:05.579Z,5.62
2023-01-26T10:00:44.285Z,5.61
2023-01-26T10:03:39.382Z,5.64
2023-01-26T10:06:28.571Z,5.68
2023-01-26T10:09:30.085Z,5.75
2023-01-26T10:12:00.586Z,5.79
2023-01-26T10:14:40.992Z,5.84
2023-01-26T10:17:16.969Z,5.87
2023-01-26T10:19:52.531Z,5.90
2023-01-26T10:22:44.023Z,5.99
2023-01-26T10:25:27.761Z,6.00
2023-01-26T10:27:54.486Z,6.02
2023-01-26T10:30:21.517Z,6.07
2023-01-26T10:32:52.067Z,6.10
2023-01-26T10:35:23.710Z,6.11
2023-01-26T10:37:52.695Z,6.10
2023-01-26T10:40:20.182Z,6.14
2023-01-26T10:42:58.956Z,6.14
2023-01-26T10:45:33.406Z,6.06
2023-01-26T10:48:20.478Z,6.16
2023-01-26T10:50:47.937Z,6.22
2023-01-26T10:53:28.312Z,6.20
2023-01-26T10:56:01.725Z,6.14
2023-01-26T10:58:42.353Z,6.18
2023-01-26T11:01:15.410Z,6.17
2023-01-26T11:03:43.155Z,6.24
2023-01-26T11:06:17.935Z,6.31
2023-01-26T11:08:44.343Z,6.46
2023-01-26T11:11:27.163Z,6.58
2023-01-26T11:14:16.237Z,6.55
2023-01-26T11:17:01.239Z,6.57
2023-01-26T11:19:50.826Z,6.66
2023-01-26T11:22:32.670Z,6.54
2023-01-26T11:25:21.433Z,6.72
2023-01-26T11:28:14.764Z,6.87
2023-01-26T11:31:06.899Z,6.88
2023-01-26T11:34:02.253Z,6.84
2023-01-26T11:37:06.162Z,6.79
2023-01-26T11:39:56.661Z,6.77
2023-01-26T11:42:38.696Z,6.81
2023-01-26T11:45:38.360Z,6.82
2023-01-26T11:48:42.120Z,6.88
2023-01-26T11:51:30.506Z,6.92
2023-01-26T11:54:38.608Z,6.89
2023-01-26T11:57:47.694Z,6.82
2023-01-26T12:00:29.409Z,6.69
2023-01-26T12:03:06.179Z,6.64
2023-01-26T12:05:51.184Z,6.71
2023-01-26T12:08:38.114Z,6.73
2023-01-26T12:11:25.671Z,6.69
2023-01-26T12:14:11.047Z,6.72
2023-01-26T12:16:43.550Z,6.76
2023-01-26T12:19:21.906Z,6.72
2023-01-26T12:21:49.962Z,6.73
2023-01-26T12:24:54.154Z,6.73
2023-01-26T12:27:25.493Z,6.75
2023-01-26T12:30:02.070Z,6.77
2023-01-26T12:32:28.567Z,6.78
2023-01-26T12:34:55.085Z,6.83
2023-01-26T12:37:51.625Z,6.87
2023-01-26T12:40:17.936Z,6.88
2023-01-26T12:43:12.250Z,6.90
2023-01-26T12:45:44.313Z,6.92
2023-01-26T12:48:20.513Z,6.93
2023-01-26T12:51:03.940Z,6.96
2023-01-26T12:53:40.029Z,6.98
2023-01-26T12:56:17.001Z,7.05
2023-01-26T12:58:45.668Z,7.08
2023-01-26T13:01:19.261Z,7.08
2023-01-26T13:03:53.819Z,7.02
2023-01-26T13:06:23.084Z,6.98
2023-01-26T13:08:53.557Z,6.99
2023-01-26T13:11:50.774Z,6.91
2023-01-26T13:14:26.312Z,6.86
2023-01-26T13:16:53.434Z,6.72
2023-01-26T13:19:44.479Z,6.79
2023-01-26T13:22:26.003Z,6.83
2023-01-26T13:24:55.428Z,6.84
2023-01-26T13:27:49.939Z,6.88
2023-01-26T13:30:22.372Z,6.89
2023-01-26T13:32:48.930Z,6.89
2023-01-26T13:35:20.552Z,6.94
2023-01-26T13:37:52.982Z,6.93
2023-01-26T13:40:44.747Z,6.98
2023-01-26T13:43:26.859Z,6.93
2023-01-26T13:46:06.743Z,6.90
2023-01-26T13:48:43.727Z,6.81
2023-01-26T13:51:25.831Z,6.75
2023-01-26T13:54:04.396Z,6.72
2023-01-26T13:56:58.930Z,6.72
2023-01-26T13:59:25.723Z,6.67
2023-01-26T14:01:54.903Z,6.70
2023-01-26T14:04:32.175Z,6.73
2023-01-26T14:07:03.021Z,6.74
2023-01-26T14:09:32.589Z,6.73
2023-01-26T14:12:03.325Z,6.69
2023-01-26T14:14:33.380Z,6.73
2023-01-26T14:17:00.647Z,6.72
2023-01-26T14:19:28.820Z,6.76
2023-01-26T14:21:58.201Z,6.77
2023-01-26T14:24:35.122Z,6.79
2023-01-26T14:27:05.511Z,6.82
2023-01-26T14:29:37.576Z,6.79
2023-01-26T14:32:04.733Z,6.80
2023-01-26T14:34:31.415Z,6.82
2023-01-26T14:37:18.075Z,6.82
2023-01-26T14:39:47.787Z,6.77
2023-01-26T14:42:16.658Z,6.79
2023-01-26T14:44:43.168Z,6.80
2023-01-26T14:47:16.663Z,6.85
2023-01-26T14:49:57.610Z,6.87
2023-01-26T14:52:30.932Z,6.82
2023-01-26T14:55:02.895Z,6.78
2023-01-26T14:57:31.069Z,6.64
2023-01-26T15:00:00.373Z,6.66
2023-01-26T15:02:38.340Z,6.59
2023-01-26T15:05:17.302Z,6.59
2023-01-26T15:07:46.305Z,6.60
2023-01-26T15:10:24.850Z,6.60
2023-01-26T15:13:22.946Z,6.64
2023-01-26T15:16:04.457Z,6.63
2023-01-26T15:18:32.606Z,6.60
2023-01-26T15:21:14.792Z,6.60
2023-01-26T15:23:44.061Z,6.59
2023-01-26T15:26:22.609Z,6.64
2023-01-26T15:28:54.505Z,6.62
2023-01-26T15:31:28.175Z,6.59
2023-01-26T15:33:55.790Z,6.58
2023-01-26T15:36:35.670Z,6.57
2023-01-26T15:39:24.648Z,6.59
2023-01-26T15:42:21.409Z,6.54
2023-01-26T15:44:47.783Z,6.53
2023-01-26T15:47:14.274Z,6.50
2023-01-26T15:49:42.088Z,6.53
2023-01-26T15:52:30.234Z,6.47
2023-01-26T15:54:56.761Z,6.48
2023-01-26T15:57:23.196Z,6.54
2023-01-26T15:59:49.614Z,6.49
2023-01-26T16:02:18.768Z,6.49
2023-01-26T16:04:45.261Z,6.55
2023-01-26T16:07:14.270Z,6.53
2023-01-26T16:09:41.635Z,6.50
2023-01-26T16:12:32.929Z,6.55
2023-01-26T16:15:00.394Z,6.51
2023-01-26T16:17:27.306Z,6.53
2023-01-26T16:19:53.765Z,6.52
2023-01-26T16:22:20.177Z,6.45
2023-01-26T16:24:46.899Z,6.43
2023-01-26T16:27:13.310Z,6.43
2023-01-26T16:29:39.788Z,6.40
2023-01-26T16:32:26.220Z,6.40
2023-01-26T16:34:52.584Z,6.41
2023-01-26T16:37:19.005Z,6.40
2023-01-26T16:39:45.442Z,6.47
2023-01-26T16:42:18.395Z,6.43
2023-01-26T16:44:46.046Z,6.43
2023-01-26T16:47:12.446Z,6.42
2023-01-26T16:49:38.872Z,6.40
2023-01-26T16:52:05.335Z,6.34
2023-01-26T16:54:31.743Z,6.37
2023-01-26T16:56:58.166Z,6.35
2023-01-26T16:59:24.535Z,6.38
2023-01-26T17:01:50.998Z,6.42
2023-01-26T17:04:17.471Z,6.48
2023-01-26T17:06:43.913Z,6.48
2023-01-26T17:09:10.619Z,6.46
2023-01-26T17:11:37.214Z,6.48
2023-01-26T17:14:03.728Z,6.44
2023-01-26T17:16:31.887Z,6.41
2023-01-26T17:18:58.439Z,6.51
2023-01-26T17:21:26.627Z,6.47
2023-01-26T17:23:55.563Z,6.47
2023-01-26T17:26:22.602Z,6.48
2023-01-26T17:28:52.394Z,6.46
2023-01-26T17:31:21.112Z,6.42
2023-01-26T17:33:49.502Z,6.40
2023-01-26T17:36:17.642Z,6.43
2023-01-26T17:38:44.483Z,6.42
2023-01-26T17:41:10.953Z,6.39
2023-01-26T17:43:37.388Z,6.43
2023-01-26T17:46:13.133Z,6.39
2023-01-26T17:48:39.988Z,6.30
2023-01-26T17:51:08.240Z,6.26
2023-01-26T17:53:39.228Z,6.30
2023-01-26T17:56:08.510Z,6.32
2023-01-26T17:58:35.790Z,6.33
2023-01-26T18:01:02.566Z,6.26
2023-01-26T18:03:29.272Z,6.27
2023-01-26T18:05:57.186Z,6.33
2023-01-26T18:08:24.744Z,6.36
2023-01-26T18:10:58.184Z,6.35
2023-01-26T18:13:24.632Z,6.32
2023-01-26T18:15:52.239Z,6.34
2023-01-26T18:18:18.630Z,6.34
2023-01-26T18:20:45.099Z,6.34
2023-01-26T18:23:11.530Z,6.35
2023-01-26T18:25:38.155Z,6.33
2023-01-26T18:28:06.184Z,6.33
2023-01-26T18:30:34.335Z,6.35
2023-01-26T18:33:00.697Z,6.32
2023-01-26T18:35:27.094Z,6.33
2023-01-26T18:37:53.562Z,6.32
2023-01-26T18:40:20.398Z,6.33
2023-01-26T18:42:49.177Z,6.29
2023-01-26T18:45:15.576Z,6.32
2023-01-26T18:47:41.936Z,6.29
2023-01-26T18:50:09.200Z,6.29
2023-01-26T18:52:35.692Z,6.26
2023-01-26T18:55:02.083Z,6.28
2023-01-26T18:57:28.504Z,6.35
2023-01-26T18:59:54.897Z,6.37
2023-01-26T19:02:21.328Z,6.39
2023-01-26T19:04:47.733Z,6.40
2023-01-26T19:07:15.263Z,6.34
2023-01-26T19:09:41.662Z,6.35
2023-01-26T19:12:08.452Z,6.36
2023-01-26T19:14:35.409Z,6.36
2023-01-26T19:17:01.843Z,6.28
2023-01-26T19:19:29.285Z,6.30
2023-01-26T19:21:55.634Z,6.33
2023-01-26T19:24:22.108Z,6.29
2023-01-26T19:26:48.491Z,6.30
2023-01-26T19:29:14.979Z,6.31
2023-01-26T19:31:41.446Z,6.26
2023-01-26T19:34:13.338Z,6.28
2023-01-26T19:36:41.054Z,6.26
2023-01-26T19:39:07.711Z,6.25
2023-01-26T19:41:34.680Z,6.24
2023-01-26T19:44:01.177Z,6.23
2023-01-26T19:46:27.628Z,6.20
2023-01-26T19:48:54.192Z,6.20
2023-01-26T19:51:23.768Z,6.18
2023-01-26T19:53:54.216Z,6.15
2023-01-26T19:56:31.543Z,6.18
2023-01-26T19:59:00.041Z,6.19
2023-01-26T20:01:28.767Z,6.12
2023-01-26T20:03:59.109Z,6.05
2023-01-26T20:06:28.349Z,6.02
2023-01-26T20:08:55.895Z,6.00
2023-01-26T20:11:25.090Z,6.00
2023-01-26T20:14:02.819Z,5.91
2023-01-26T20:16:30.276Z,5.87
2023-01-26T20:18:58.951Z,5.89
2023-01-26T20:21:26.411Z,5.83
2023-01-26T20:23:55.482Z,5.81
2023-01-26T20:26:23.508Z,5.79
2023-01-26T20:28:50.292Z,5.83
2023-01-26T20:31:19.813Z,5.85
2023-01-26T20:33:47.968Z,5.86
2023-01-26T20:36:19.206Z,5.78
2023-01-26T20:38:46.855Z,5.73
2023-01-26T20:41:17.168Z,5.63
2023-01-26T20:43:58.102Z,5.65
2023-01-26T20:46:28.002Z,5.66
2023-01-26T20:48:55.581Z,5.65
2023-01-26T20:51:26.811Z,5.67
2023-01-26T20:53:53.171Z,5.64
2023-01-26T20:56:21.698Z,5.68
2023-01-26T20:58:48.321Z,5.73
2023-01-26T21:01:16.903Z,5.72
2023-01-26T21:03:44.139Z,5.68
2023-01-26T21:06:13.645Z,5.70
2023-01-26T21:08:40.269Z,5.65
2023-01-26T21:11:11.016Z,5.69
2023-01-26T21:13:41.055Z,5.73
2023-01-26T21:16:09.543Z,5.77
2023-01-26T21:18:35.926Z,5.77
2023-01-26T21:21:05.831Z,5.79
2023-01-26T21:23:33.707Z,5.76
2023-01-26T21:26:03.141Z,5.74
2023-01-26T21:28:30.329Z,5.75
2023-01-26T21:31:06.114Z,5.81
2023-01-26T21:33:34.209Z,5.87
2023-01-26T21:36:03.074Z,5.86
2023-01-26T21:38:32.403Z,5.87
2023-01-26T21:41:03.519Z,5.88
2023-01-26T21:43:30.694Z,5.84
2023-01-26T21:45:58.714Z,5.82
2023-01-26T21:48:31.538Z,5.82
2023-01-26T21:51:17.331Z,5.77
2023-01-26T21:53:44.255Z,5.79
2023-01-26T21:56:14.546Z,5.80
2023-01-26T21:58:59.562Z,5.79
2023-01-26T22:01:25.968Z,5.75
2023-01-26T22:03:57.233Z,5.71
2023-01-26T22:06:24.127Z,5.61
2023-01-26T22:08:50.652Z,5.62
2023-01-26T22:11:17.346Z,5.60
2023-01-26T22:13:44.140Z,5.63
2023-01-26T22:16:10.623Z,5.64
2023-01-26T22:18:37.059Z,5.65
2023-01-26T22:21:03.655Z,5.73
2023-01-26T22:23:40.192Z,5.75
2023-01-26T22:26:20.903Z,5.66
2023-01-26T22:28:55.598Z,5.65
2023-01-26T22:31:27.017Z,5.68
2023-01-26T22:33:54.698Z,5.73
2023-01-26T22:36:22.173Z,5.77
2023-01-26T22:38:49.560Z,5.81
2023-01-26T22:41:20.906Z,5.85
2023-01-26T22:43:49.179Z,5.88
2023-01-26T22:46:17.781Z,5.88
2023-01-26T22:48:44.247Z,5.87
2023-01-26T22:51:18.043Z,5.86
2023-01-26T22:53:44.852Z,5.86
2023-01-26T22:56:11.709Z,5.88
2023-01-26T22:58:47.649Z,5.89
2023-01-26T23:01:22.590Z,5.80
2023-01-26T23:03:54.430Z,5.78
2023-01-26T23:06:21.434Z,5.81
2023-01-26T23:08:47.910Z,5.86
2023-01-26T23:11:26.194Z,5.89
2023-01-26T23:13:54.848Z,5.89
2023-01-26T23:16:23.296Z,5.91
2023-01-26T23:18:51.299Z,5.91
2023-01-26T23:21:18.157Z,5.91
2023-01-26T23:23:44.641Z,5.87
2023-01-26T23:26:11.149Z,5.85
2023-01-26T23:28:40.305Z,5.85
2023-01-26T23:31:07.469Z,5.87
2023-01-26T23:33:35.024Z,5.86
2023-01-26T23:36:02.177Z,5.85
2023-01-26T23:38:29.913Z,5.81
2023-01-26T23:40:57.560Z,5.76
2023-01-26T23:43:24.355Z,5.72
2023-01-26T23:45:51.856Z,5.74
2023-01-26T23:48:19.874Z,5.79
2023-01-26T23:50:46.756Z,5.80
2023-01-26T23:53:13.943Z,5.79
2023-01-26T23:55:42.537Z,5.78
2023-01-26T23:58:10.189Z,5.80
